.
WxDataArchive / Data Records for 2012-09-10
2012-09-09 September 2012 2012-09-11

Data Records for Monday, 10 September 2012

Time	Temp	Chill	HIndex	Humid	Dewpt	 Wind 	HiWind	WindDir	Rain 	Barom 
-----	----	-----	------	-----	-----	------	------	-------	-----	----- 
00:00	58.9	58.9	58.9	73	50.3	0	0	---	0.00	30.092 
00:05	58.9	58.9	58.9	74	50.6	0	0	---	0.00	30.092 
00:10	58.7	58.7	58.7	74	50.4	0	0	---	0.00	30.092 
00:15	58.6	58.6	58.6	74	50.3	0	0	---	0.00	30.094 
00:20	58.3	58.3	58.3	75	50.4	0	0	---	0.00	30.094 
00:25	58.1	58.1	58.1	75	50.2	0	0	---	0.00	30.094 
00:30	58.0	58.0	58.0	76	50.5	0	0	---	0.00	30.098 
00:35	57.6	57.6	57.6	77	50.4	0	0	---	0.00	30.098 
00:40	57.5	57.5	57.5	77	50.3	0	0	---	0.00	30.098 
00:45	57.3	57.3	57.3	77	50.1	0	0	---	0.00	30.100 
00:50	57.0	57.0	57.0	78	50.2	0	0	---	0.00	30.100 
00:55	56.9	56.9	56.9	78	50.1	0	0	---	0.00	30.100 
01:00	56.6	56.6	56.6	79	50.2	0	0	---	0.00	30.102 
01:05	56.5	56.5	56.5	79	50.1	0	0	---	0.00	30.102 
01:10	56.2	56.2	56.2	80	50.1	0	0	---	0.00	30.102 
01:15	56.0	56.0	56.0	81	50.3	0	0	---	0.00	30.109 
01:20	55.9	55.9	55.9	81	50.2	0	0	---	0.00	30.109 
01:25	55.7	55.7	55.7	82	50.3	0	0	---	0.00	30.109 
01:30	55.6	55.6	55.6	82	50.2	0	0	---	0.00	30.109 
01:35	55.4	55.4	55.4	82	50.0	0	0	---	0.00	30.109 
01:40	55.3	55.3	55.3	83	50.2	0	0	---	0.00	30.109 
01:45	55.3	55.3	55.3	83	50.2	0	0	---	0.00	30.107 
01:50	55.1	55.1	55.1	84	50.4	0	0	---	0.00	30.107 
01:55	55.1	55.1	55.1	84	50.4	0	0	---	0.00	30.107 
02:00	55.0	55.0	55.0	84	50.3	0	0	---	0.00	30.106 
02:05	54.8	54.8	54.8	84	50.1	0	0	---	0.00	30.106 
02:10	54.7	54.7	54.7	84	50.0	0	0	---	0.00	30.106 
02:15	54.7	54.7	54.7	85	50.3	0	0	---	0.00	30.110 
02:20	54.5	54.5	54.5	85	50.1	0	0	---	0.00	30.110 
02:25	54.5	54.5	54.5	85	50.1	0	0	---	0.00	30.110 
02:30	54.4	54.4	54.4	85	50.0	0	0	---	0.00	30.111 
02:35	54.4	54.4	54.4	85	50.0	0	0	---	0.00	30.111 
02:40	54.2	54.2	54.2	86	50.1	0	0	---	0.00	30.111 
02:45	54.1	54.1	54.1	86	50.0	0	0	---	0.00	30.111 
02:50	53.9	53.9	53.9	86	49.8	0	0	---	0.00	30.111 
02:55	53.9	53.9	53.9	87	50.1	0	0	---	0.00	30.111 
03:00	53.8	53.8	53.8	87	50.0	0	0	---	0.00	30.113 
03:05	53.6	53.6	53.6	87	49.8	0	0	---	0.00	30.113 
03:10	53.5	53.5	53.5	87	49.7	0	0	---	0.00	30.113 
03:15	53.5	53.5	53.5	87	49.7	0	0	---	0.00	30.113 
03:20	53.3	53.3	53.3	88	49.8	0	0	---	0.00	30.113 
03:25	53.3	53.3	53.3	88	49.8	0	0	---	0.00	30.113 
03:30	53.3	53.3	53.3	88	49.8	0	0	---	0.00	30.116 
03:35	53.3	53.3	53.3	88	49.8	0	0	---	0.00	30.116 
03:40	53.3	53.3	53.3	88	49.8	0	0	---	0.00	30.116 
03:45	53.3	53.3	53.3	88	49.8	0	0	---	0.00	30.119 
03:50	53.2	53.2	53.2	88	49.7	0	0	---	0.00	30.119 
03:55	53.2	53.2	53.2	88	49.7	0	0	---	0.00	30.119 
04:00	53.1	53.1	53.1	88	49.6	0	0	---	0.00	30.124 
04:05	52.9	52.9	52.9	88	49.4	0	0	---	0.00	30.124 
04:10	52.8	52.8	52.8	88	49.3	0	0	---	0.00	30.124 
04:15	52.6	52.6	52.6	89	49.4	0	0	---	0.00	30.125 
04:20	52.5	52.5	52.5	89	49.4	0	0	---	0.00	30.125 
04:25	52.3	52.3	52.3	89	49.2	0	0	---	0.00	30.125 
04:30	52.2	52.2	52.2	89	49.1	0	0	---	0.00	30.129 
04:35	52.0	52.0	52.0	89	48.9	0	0	---	0.00	30.129 
04:40	51.9	51.9	51.9	89	48.8	0	0	---	0.00	30.129 
04:45	51.7	51.7	51.7	89	48.6	0	0	---	0.00	30.135 
04:50	51.6	51.6	51.6	89	48.5	0	0	---	0.00	30.135 
04:55	51.4	51.4	51.4	89	48.3	0	0	---	0.00	30.135 
05:00	51.3	51.3	51.3	90	48.5	0	0	---	0.00	30.138 
05:05	51.1	51.1	51.1	90	48.3	0	0	---	0.00	30.138 
05:10	51.0	51.0	51.0	90	48.2	0	0	---	0.00	30.138 
05:15	51.0	51.0	51.0	90	48.2	0	0	---	0.00	30.145 
05:20	50.8	50.8	50.8	90	48.0	0	0	---	0.00	30.145 
05:25	50.8	50.8	50.8	90	48.0	0	0	---	0.00	30.145 
05:30	50.8	50.8	50.8	90	48.0	0	0	---	0.00	30.147 
05:35	50.7	50.7	50.7	90	47.9	0	0	---	0.00	30.147 
05:40	50.7	50.7	50.7	91	48.2	0	0	---	0.00	30.147 
05:45	50.5	50.5	50.5	91	48.0	0	0	---	0.00	30.147 
05:50	50.5	50.5	50.5	91	48.0	0	0	---	0.00	30.147 
05:55	50.5	50.5	50.5	91	48.0	0	0	---	0.00	30.147 
06:00	50.5	50.5	50.5	91	48.0	0	0	---	0.00	30.149 
06:05	50.4	50.4	50.4	91	47.9	0	0	---	0.00	30.149 
06:10	50.4	50.4	50.4	91	47.9	0	0	---	0.00	30.149 
06:15	50.4	50.4	50.4	91	47.9	0	0	---	0.00	30.154 
06:20	50.2	50.2	50.2	90	47.4	0	0	---	0.00	30.154 
06:25	50.2	50.2	50.2	90	47.4	0	0	---	0.00	30.154 
06:30	50.1	50.1	50.1	90	47.3	0	0	---	0.00	30.160 
06:35	50.1	50.1	50.1	90	47.3	0	0	---	0.00	30.160 
06:40	50.1	50.1	50.1	90	47.3	0	0	---	0.00	30.160 
06:45	49.9	49.9	49.9	90	47.1	0	0	---	0.00	30.162 
06:50	49.8	49.8	49.8	90	47.0	0	0	---	0.00	30.162 
06:55	49.8	49.8	49.8	90	47.0	0	0	---	0.00	30.162 
07:00	49.8	49.8	49.8	90	47.0	0	0	---	0.00	30.168 
07:05	49.6	49.6	49.6	90	46.8	0	0	---	0.00	30.168 
07:10	49.5	49.5	49.5	90	46.7	0	0	---	0.00	30.168 
07:15	49.5	49.5	49.5	90	46.7	0	0	---	0.00	30.176 
07:20	49.5	49.5	49.5	90	46.7	0	0	---	0.00	30.176 
07:25	49.4	49.4	49.4	90	46.6	0	0	---	0.00	30.176 
07:30	49.4	49.4	49.4	90	46.6	0	0	---	0.00	30.182 
07:35	49.4	49.4	49.4	90	46.6	0	0	---	0.00	30.182 
07:40	49.2	49.2	49.2	91	46.7	0	0	---	0.00	30.182 
07:45	49.2	49.2	49.2	91	46.7	0	0	---	0.00	30.193 
07:50	49.4	49.4	49.4	91	46.9	0	0	---	0.00	30.193 
07:55	49.4	49.4	49.4	91	46.9	0	0	---	0.00	30.193 
08:00	49.4	49.4	49.4	91	46.9	0	0	---	0.00	30.198 
08:05	49.6	49.6	49.6	91	47.1	0	0	---	0.00	30.198 
08:10	49.8	49.8	49.8	91	47.3	0	0	---	0.00	30.198 
08:15	50.1	50.1	50.1	91	47.6	0	0	---	0.00	30.206 
08:20	50.5	50.5	50.5	91	48.0	0	0	---	0.00	30.206 
08:25	51.1	51.1	51.1	92	48.9	0	0	---	0.00	30.206 
08:30	51.6	51.6	51.6	91	49.1	0	0	---	0.00	30.210 
08:35	52.2	52.2	52.2	91	49.7	0	0	---	0.00	30.210 
08:40	52.6	52.6	52.6	89	49.4	0	1	292	0.00	30.210 
08:45	53.3	53.3	53.3	87	49.5	0	1	292	0.00	30.212 
08:50	54.1	54.1	54.1	84	49.4	0	1	292	0.00	30.212 
08:55	54.8	54.8	54.8	80	48.7	0	2	292	0.00	30.212 
09:00	55.4	55.4	55.4	77	48.3	0	1	292	0.00	30.214 
09:05	56.0	56.0	56.0	77	48.9	0	0	---	0.00	30.214 
09:10	56.5	56.5	56.5	76	49.0	0	0	---	0.00	30.214 
09:15	56.9	56.9	56.9	74	48.7	0	1	292	0.00	30.221 
09:20	57.2	57.2	57.2	73	48.6	0	1	292	0.00	30.221 
09:25	57.6	57.6	57.6	73	49.0	0	0	---	0.00	30.221 
09:30	57.8	57.8	57.8	70	48.1	0	1	292	0.00	30.222 
09:35	58.1	58.1	58.1	69	48.0	0	1	292	0.00	30.222 
09:40	58.4	58.4	58.4	68	47.9	0	1	292	0.00	30.222 
09:45	58.9	58.9	58.9	64	46.7	1	3	292	0.00	30.223 
09:50	59.5	59.5	59.5	64	47.3	0	2	292	0.00	30.223 
09:55	59.9	59.9	59.9	63	47.3	0	1	292	0.00	30.223 
10:00	60.5	60.5	60.5	64	48.3	0	2	292	0.00	30.221 
10:05	61.0	61.0	61.0	63	48.3	0	1	292	0.00	30.221 
10:10	61.3	61.3	61.3	62	48.2	0	3	292	0.00	30.221 
10:15	62.1	62.1	62.1	58	47.1	1	4	90	0.00	30.224 
10:20	63.1	63.1	63.1	56	47.1	1	2	90	0.00	30.224 
10:25	63.9	63.9	63.9	54	46.9	1	4	90	0.00	30.224 
10:30	64.7	64.7	64.7	53	47.2	1	3	90	0.00	30.221 
10:35	65.2	65.2	65.2	49	45.6	2	4	90	0.00	30.221 
10:40	65.5	65.5	65.5	51	46.9	0	3	90	0.00	30.221 
10:45	66.1	66.1	66.1	52	48.0	0	1	90	0.00	30.223 
10:50	66.9	66.9	66.9	48	46.6	1	3	90	0.00	30.223 
10:55	67.4	67.4	67.4	47	46.5	2	6	90	0.00	30.223 
11:00	67.4	67.4	67.4	47	46.5	1	3	90	0.00	30.224 
11:05	67.8	67.8	67.8	46	46.3	1	3	90	0.00	30.224 
11:10	68.3	68.3	68.3	46	46.7	0	1	90	0.00	30.224 
11:15	69.1	69.1	69.1	51	50.2	0	1	90	0.00	30.224 
11:20	69.8	69.8	69.8	50	50.3	1	4	90	0.00	30.224 
11:25	69.6	69.6	69.6	47	48.5	0	2	90	0.00	30.224 
11:30	69.4	69.4	69.4	45	47.1	1	3	90	0.00	30.224 
11:35	69.6	69.6	69.6	44	46.7	1	4	90	0.00	30.224 
11:40	70.1	70.1	70.1	41	45.3	0	2	90	0.00	30.224 
11:45	70.3	70.3	70.3	45	47.9	1	4	90	0.00	30.219 
11:50	69.9	69.9	69.9	43	46.4	2	4	68	0.00	30.219 
11:55	69.6	69.6	69.6	43	46.1	1	3	68	0.00	30.219 
12:00	69.8	69.8	69.8	42	45.7	1	4	68	0.00	30.218 
12:05	70.1	70.1	70.1	39	44.0	1	4	68	0.00	30.218 
12:10	70.3	70.3	70.3	42	46.1	1	3	68	0.00	30.218 
12:15	70.3	70.3	70.3	42	46.1	0	3	68	0.00	30.218 
12:20	70.8	70.8	70.8	41	45.9	1	5	68	0.00	30.218 
12:25	70.9	70.9	70.9	38	44.0	1	4	90	0.00	30.218 
12:30	70.8	70.8	70.8	32	39.5	1	4	90	0.00	30.214 
12:35	71.1	71.1	71.1	32	39.7	1	3	90	0.00	30.214 
12:40	71.1	71.1	71.1	33	40.5	2	5	90	0.00	30.214 
12:45	70.9	70.9	70.9	36	42.6	0	1	90	0.00	30.214 
12:50	71.5	71.5	71.5	38	44.5	0	1	90	0.00	30.214 
12:55	71.6	71.6	71.6	35	42.5	0	1	90	0.00	30.214 
13:00	71.6	71.6	71.6	31	39.4	1	3	90	0.00	30.209 
13:05	72.0	72.0	72.0	33	41.3	1	2	90	0.00	30.209 
13:10	71.6	71.6	71.6	35	42.5	0	1	90	0.00	30.209 
13:15	72.0	72.0	72.0	38	45.0	1	4	90	0.00	30.208 
13:20	72.0	72.0	72.0	34	42.1	1	5	90	0.00	30.208 
13:25	71.6	71.6	71.6	31	39.4	1	4	90	0.00	30.208 
13:30	71.6	71.6	71.6	37	43.9	1	3	90	0.00	30.207 
13:35	71.8	71.8	71.8	33	41.1	1	3	90	0.00	30.207 
13:40	72.1	72.1	72.1	34	42.2	0	2	90	0.00	30.207 
13:45	72.7	72.7	72.7	31	40.3	0	2	90	0.00	30.203 
13:50	72.8	72.8	72.8	32	41.2	0	1	90	0.00	30.203 
13:55	73.3	73.3	73.3	31	40.8	0	2	90	0.00	30.203 
14:00	73.3	73.3	73.3	34	43.2	1	3	90	0.00	30.204 
14:05	73.0	73.0	73.0	34	43.0	1	3	90	0.00	30.204 
14:10	73.2	73.2	73.2	35	43.9	0	2	90	0.00	30.204 
14:15	73.2	73.2	73.2	33	42.4	1	2	90	0.00	30.204 
14:20	73.0	73.0	73.0	34	43.0	0	2	90	0.00	30.204 
14:25	72.7	72.7	72.7	30	39.5	1	5	90	0.00	30.204 
14:30	72.3	72.3	72.3	31	40.0	0	2	90	0.00	30.199 
14:35	72.3	72.3	72.3	36	43.8	0	2	90	0.00	30.199 
14:40	72.3	72.3	72.3	31	40.0	1	3	90	0.00	30.199 
14:45	72.1	72.1	72.1	33	41.4	2	5	90	0.00	30.191 
14:50	72.1	72.1	72.1	32	40.6	1	3	90	0.00	30.191 
14:55	72.3	72.3	72.3	36	43.8	0	2	90	0.00	30.191 
15:00	72.3	72.3	72.3	33	41.6	2	5	90	0.00	30.188 
15:05	72.5	72.5	72.5	35	43.3	0	2	90	0.00	30.188 
15:10	72.5	72.5	72.5	29	38.4	1	2	90	0.00	30.188 
15:15	72.5	72.5	72.5	28	37.5	1	4	112	0.00	30.181 
15:20	72.5	72.5	72.5	33	41.7	1	2	112	0.00	30.181 
15:25	72.8	72.8	72.8	29	38.7	0	2	315	0.00	30.181 
15:30	73.2	73.2	73.2	35	43.9	0	1	315	0.00	30.175 
15:35	73.2	73.2	73.2	32	41.6	0	2	45	0.00	30.175 
15:40	73.3	73.3	73.3	30	40.0	0	2	22	0.00	30.175 
15:45	73.3	73.3	73.3	34	43.2	0	1	22	0.00	30.172 
15:50	73.5	73.5	73.5	36	44.9	0	1	22	0.00	30.172 
15:55	73.7	73.7	73.7	33	42.8	0	1	22	0.00	30.172 
16:00	73.7	73.7	73.7	31	41.2	0	2	22	0.00	30.168 
16:05	74.0	74.0	74.0	29	39.7	0	2	22	0.00	30.168 
16:10	74.4	74.4	74.4	28	39.2	0	1	22	0.00	30.168 
16:15	74.0	74.0	74.0	29	39.7	0	3	292	0.00	30.169 
16:20	73.9	73.9	73.9	30	40.5	0	2	292	0.00	30.169 
16:25	73.5	73.5	73.5	32	41.8	0	1	292	0.00	30.169 
16:30	73.2	73.2	73.2	31	40.7	0	2	292	0.00	30.165 
16:35	72.8	72.8	72.8	30	39.5	0	1	292	0.00	30.165 
16:40	72.8	72.8	72.8	31	40.4	0	1	292	0.00	30.165 
16:45	72.8	72.8	72.8	35	43.5	0	2	292	0.00	30.162 
16:50	72.8	72.8	72.8	32	41.2	0	2	292	0.00	30.162 
16:55	73.0	73.0	73.0	32	41.4	0	1	292	0.00	30.162 
17:00	72.8	72.8	72.8	35	43.5	0	1	292	0.00	30.162 
17:05	72.8	72.8	72.8	32	41.2	0	1	292	0.00	30.162 
17:10	72.8	72.8	72.8	31	40.4	0	1	292	0.00	30.162 
17:15	72.8	72.8	72.8	30	39.5	0	2	292	0.00	30.160 
17:20	72.8	72.8	72.8	34	42.8	0	1	292	0.00	30.160 
17:25	72.7	72.7	72.7	30	39.5	0	1	292	0.00	30.160 
17:30	72.8	72.8	72.8	32	41.2	0	1	292	0.00	30.159 
17:35	73.0	73.0	73.0	31	40.6	0	1	292	0.00	30.159 
17:40	73.2	73.2	73.2	31	40.7	0	1	292	0.00	30.159 
17:45	73.2	73.2	73.2	32	41.6	0	2	292	0.00	30.159 
17:50	73.0	73.0	73.0	33	42.2	1	3	90	0.00	30.159 
17:55	72.7	72.7	72.7	33	41.9	1	4	90	0.00	30.159 
18:00	72.3	72.3	72.3	33	41.6	1	4	90	0.00	30.160 
18:05	72.1	72.1	72.1	34	42.2	0	2	90	0.00	30.160 
18:10	72.0	72.0	72.0	33	41.3	1	3	90	0.00	30.160 
18:15	71.8	71.8	71.8	35	42.7	0	2	90	0.00	30.161 
18:20	71.6	71.6	71.6	35	42.5	1	4	90	0.00	30.161 
18:25	71.6	71.6	71.6	35	42.5	0	2	90	0.00	30.161 
18:30	71.5	71.5	71.5	35	42.4	0	1	90	0.00	30.157 
18:35	71.3	71.3	71.3	38	44.4	0	1	90	0.00	30.157 
18:40	71.1	71.1	71.1	38	44.2	0	0	---	0.00	30.157 
18:45	70.9	70.9	70.9	36	42.6	0	1	90	0.00	30.157 
18:50	70.8	70.8	70.8	35	41.8	0	1	90	0.00	30.157 
18:55	70.8	70.8	70.8	35	41.8	1	2	90	0.00	30.157 
19:00	70.8	70.8	70.8	34	41.0	1	4	90	0.00	30.153 
19:05	70.6	70.6	70.6	35	41.6	0	2	90	0.00	30.153 
19:10	70.4	70.4	70.4	36	42.2	0	2	90	0.00	30.153 
19:15	70.4	70.4	70.4	37	42.9	0	1	90	0.00	30.151 
19:20	70.1	70.1	70.1	36	41.9	0	1	90	0.00	30.151 
19:25	69.9	69.9	69.9	37	42.4	0	0	---	0.00	30.151 
19:30	69.6	69.6	69.6	38	42.9	0	1	90	0.00	30.149 
19:35	69.4	69.4	69.4	40	44.0	0	0	---	0.00	30.149 
19:40	69.1	69.1	69.1	39	43.1	0	0	---	0.00	30.149 
19:45	68.8	68.8	68.8	42	44.8	0	0	---	0.00	30.149 
19:50	68.4	68.4	68.4	43	45.0	0	0	---	0.00	30.149 
19:55	67.9	67.9	67.9	45	45.8	0	0	---	0.00	30.149 
20:00	67.4	67.4	67.4	44	44.7	0	0	---	0.00	30.149 
20:05	66.9	66.9	66.9	46	45.4	0	0	---	0.00	30.149 
20:10	66.4	66.4	66.4	48	46.1	0	0	---	0.00	30.149 
20:15	66.0	66.0	66.0	49	46.3	0	0	---	0.00	30.146 
20:20	65.3	65.3	65.3	50	46.2	0	0	---	0.00	30.146 
20:25	64.7	64.7	64.7	50	45.6	0	0	---	0.00	30.146 
20:30	64.2	64.2	64.2	52	46.2	0	0	---	0.00	30.147 
20:35	63.5	63.5	63.5	52	45.6	0	0	---	0.00	30.147 
20:40	63.1	63.1	63.1	54	46.2	0	0	---	0.00	30.147 
20:45	62.6	62.6	62.6	56	46.7	0	0	---	0.00	30.148 
20:50	62.3	62.3	62.3	57	46.9	0	0	---	0.00	30.148 
20:55	61.8	61.8	61.8	58	46.9	0	0	---	0.00	30.148 
21:00	61.3	61.3	61.3	60	47.3	0	0	---	0.00	30.154 
21:05	60.9	60.9	60.9	61	47.4	0	0	---	0.00	30.154 
21:10	60.5	60.5	60.5	61	47.0	0	0	---	0.00	30.154 
21:15	60.1	60.1	60.1	61	46.6	0	0	---	0.00	30.156 
21:20	59.8	59.8	59.8	62	46.8	0	0	---	0.00	30.156 
21:25	59.5	59.5	59.5	62	46.5	0	0	---	0.00	30.156 
21:30	59.3	59.3	59.3	63	46.7	0	0	---	0.00	30.159 
21:35	59.0	59.0	59.0	63	46.4	0	0	---	0.00	30.159 
21:40	58.9	58.9	58.9	65	47.2	0	0	---	0.00	30.159 
21:45	58.6	58.6	58.6	66	47.3	0	0	---	0.00	30.161 
21:50	58.3	58.3	58.3	66	47.0	0	0	---	0.00	30.161 
21:55	58.1	58.1	58.1	69	48.0	0	0	---	0.00	30.161 
22:00	57.8	57.8	57.8	69	47.7	0	0	---	0.00	30.163 
22:05	57.5	57.5	57.5	68	47.0	0	0	---	0.00	30.163 
22:10	57.2	57.2	57.2	67	46.3	0	0	---	0.00	30.163 
22:15	57.0	57.0	57.0	70	47.3	0	0	---	0.00	30.160 
22:20	56.9	56.9	56.9	70	47.2	0	0	---	0.00	30.160 
22:25	56.7	56.7	56.7	71	47.4	0	0	---	0.00	30.160 
22:30	56.6	56.6	56.6	72	47.7	0	0	---	0.00	30.159 
22:35	56.3	56.3	56.3	73	47.8	0	0	---	0.00	30.159 
22:40	56.2	56.2	56.2	73	47.7	0	0	---	0.00	30.159 
22:45	56.0	56.0	56.0	74	47.8	0	0	---	0.00	30.158 
22:50	55.7	55.7	55.7	74	47.5	0	0	---	0.00	30.158 
22:55	55.6	55.6	55.6	75	47.8	0	0	---	0.00	30.158 
23:00	55.4	55.4	55.4	75	47.6	0	0	---	0.00	30.160 
23:05	55.3	55.3	55.3	75	47.5	0	0	---	0.00	30.160 
23:10	55.1	55.1	55.1	74	47.0	0	0	---	0.00	30.160 
23:15	55.0	55.0	55.0	75	47.2	0	0	---	0.00	30.159 
23:20	54.8	54.8	54.8	75	47.0	0	0	---	0.00	30.159 
23:25	54.7	54.7	54.7	76	47.3	0	0	---	0.00	30.159 
23:30	54.7	54.7	54.7	77	47.6	0	0	---	0.00	30.157 
23:35	54.5	54.5	54.5	78	47.8	0	0	---	0.00	30.157 
23:40	54.4	54.4	54.4	78	47.7	0	0	---	0.00	30.157 
23:45	54.2	54.2	54.2	78	47.5	0	0	---	0.00	30.158 
23:50	54.1	54.1	54.1	78	47.4	0	0	---	0.00	30.158 
23:55	53.9	53.9	53.9	79	47.5	0	0	---	0.00	30.158 

CoCoRaHS
IN-AL-39
A2 Web Hosting
Creative Commons License
GoDaddy
search engine by freefind advanced

loaded 2018-11-20 14:29:28 • last modified 2010-11-18 10:43:29
Privacy PolicyDisclaimer
• wx.awcolley.com is powered by PmWiki v.2002016 •
• all content (unless otherwise noted) © 2018 A W Colley